createdAt,value
2019-05-11T00:00:19.313Z,71.89
2019-05-11T00:02:48.950Z,72.01
2019-05-11T00:05:19.099Z,72.18
2019-05-11T00:07:49.043Z,72.25
2019-05-11T00:10:18.791Z,72.38
2019-05-11T00:12:48.414Z,72.65
2019-05-11T00:15:18.163Z,72.67
2019-05-11T00:17:47.811Z,72.71
2019-05-11T00:20:17.659Z,72.66
2019-05-11T00:22:47.332Z,72.84
2019-05-11T00:25:17.288Z,73.09
2019-05-11T00:27:46.960Z,73.30
2019-05-11T00:30:16.781Z,73.65
2019-05-11T00:32:46.400Z,73.92
2019-05-11T00:35:16.028Z,74.14
2019-05-11T00:37:45.655Z,74.26
2019-05-11T00:40:15.502Z,74.44
2019-05-11T00:42:45.215Z,74.69
2019-05-11T00:45:15.080Z,74.98
2019-05-11T00:47:44.708Z,75.73
2019-05-11T00:50:15.964Z,76.31
2019-05-11T00:52:45.614Z,76.72
2019-05-11T00:55:15.382Z,76.85
2019-05-11T00:57:45.036Z,77.39
2019-05-11T01:00:15.197Z,77.60
2019-05-11T01:02:44.821Z,77.57
2019-05-11T01:05:14.916Z,77.49
2019-05-11T01:07:44.527Z,77.41
2019-05-11T01:10:25.298Z,77.52
2019-05-11T01:12:45.771Z,77.42
2019-05-11T01:15:15.731Z,77.74
2019-05-11T01:17:45.479Z,77.41
2019-05-11T01:20:18.687Z,77.19
2019-05-11T01:22:47.819Z,77.23
2019-05-11T01:25:17.500Z,77.58
2019-05-11T01:27:47.145Z,78.87
2019-05-11T01:30:17.491Z,78.71
2019-05-11T01:32:47.167Z,79.40
2019-05-11T01:35:16.985Z,80.62
2019-05-11T01:37:46.607Z,80.13
2019-05-11T01:40:17.414Z,81.15
2019-05-11T01:42:46.995Z,81.12
2019-05-11T01:45:16.716Z,81.81
2019-05-11T01:47:46.386Z,81.37
2019-05-11T01:50:16.019Z,81.88
2019-05-11T01:52:45.640Z,82.00
2019-05-11T01:55:15.341Z,82.36
2019-05-11T01:57:44.976Z,82.56
2019-05-11T02:00:14.763Z,83.58
2019-05-11T02:02:44.376Z,84.05
2019-05-11T02:05:30.109Z,84.84
2019-05-11T02:08:02.126Z,85.45
2019-05-11T02:10:32.602Z,85.88
2019-05-11T02:13:02.261Z,85.81
2019-05-11T02:15:32.002Z,85.97
2019-05-11T02:18:01.715Z,85.81
2019-05-11T02:20:31.305Z,86.13
2019-05-11T02:23:00.912Z,85.99
2019-05-11T02:25:30.615Z,86.13
2019-05-11T02:28:00.254Z,86.40
2019-05-11T02:30:29.881Z,86.69
2019-05-11T02:32:59.609Z,86.55
2019-05-11T02:35:29.216Z,86.35
2019-05-11T02:37:58.868Z,86.89
2019-05-11T02:40:28.778Z,87.19
2019-05-11T02:42:58.365Z,87.24
2019-05-11T02:45:40.732Z,87.98
2019-05-11T02:48:11.007Z,88.48
2019-05-11T02:50:40.587Z,88.16
2019-05-11T02:53:10.619Z,87.97
2019-05-11T02:55:40.697Z,88.61
2019-05-11T02:58:10.589Z,89.07
2019-05-11T03:00:42.426Z,89.09
2019-05-11T03:03:12.166Z,88.60
2019-05-11T03:05:42.079Z,88.38
2019-05-11T03:08:11.917Z,88.41
2019-05-11T03:10:41.725Z,88.62
2019-05-11T03:13:11.583Z,89.03
2019-05-11T03:15:41.270Z,89.15
2019-05-11T03:18:10.864Z,88.94
2019-05-11T03:20:40.474Z,88.81
2019-05-11T03:23:10.138Z,89.24
2019-05-11T03:25:39.888Z,88.92
2019-05-11T03:28:09.599Z,88.83
2019-05-11T03:30:39.343Z,89.06
2019-05-11T03:33:08.983Z,89.14
2019-05-11T03:35:38.542Z,89.23
2019-05-11T03:38:08.184Z,88.95
2019-05-11T03:40:37.899Z,88.61
2019-05-11T03:43:07.515Z,88.84
2019-05-11T03:45:37.171Z,88.93
2019-05-11T03:48:06.946Z,89.02
2019-05-11T03:50:36.606Z,89.01
2019-05-11T03:53:06.326Z,88.57
2019-05-11T03:55:35.925Z,87.71
2019-05-11T03:58:05.604Z,87.38
2019-05-11T04:00:35.205Z,86.92
2019-05-11T04:03:05.112Z,86.85
2019-05-11T04:05:34.861Z,86.90
2019-05-11T04:08:04.856Z,86.59
2019-05-11T04:10:34.367Z,86.99
2019-05-11T04:13:03.719Z,86.83
2019-05-11T04:15:33.138Z,86.76
2019-05-11T04:18:02.510Z,85.99
2019-05-11T04:20:31.958Z,85.49
2019-05-11T04:23:01.581Z,85.50
2019-05-11T04:25:30.963Z,85.38
2019-05-11T04:28:00.619Z,85.27
2019-05-11T04:30:30.006Z,85.04
2019-05-11T04:32:59.490Z,85.01
2019-05-11T04:35:28.863Z,84.85
2019-05-11T04:37:58.224Z,84.79
2019-05-11T04:40:27.664Z,84.76
2019-05-11T04:42:57.130Z,84.77
2019-05-11T04:45:26.566Z,84.83
2019-05-11T04:47:55.958Z,84.83
2019-05-11T04:50:25.459Z,84.78
2019-05-11T04:52:54.912Z,84.07
2019-05-11T04:55:24.276Z,83.80
2019-05-11T04:57:56.526Z,83.25
2019-05-11T05:00:25.959Z,82.68
2019-05-11T05:02:55.438Z,81.78
2019-05-11T05:05:24.835Z,81.73
2019-05-11T05:08:07.414Z,81.79
2019-05-11T05:10:25.414Z,80.89
2019-05-11T05:13:09.702Z,80.81
2019-05-11T05:15:26.054Z,80.80
2019-05-11T05:17:55.477Z,80.19
2019-05-11T05:20:24.884Z,79.18
2019-05-11T05:22:54.362Z,78.75
2019-05-11T05:25:23.828Z,79.00
2019-05-11T05:27:53.170Z,77.88
2019-05-11T05:30:22.604Z,78.13
2019-05-11T05:32:52.091Z,77.62
2019-05-11T05:35:21.510Z,77.47
2019-05-11T05:37:50.907Z,77.27
2019-05-11T05:40:20.419Z,76.22
2019-05-11T05:42:49.904Z,75.15
2019-05-11T05:45:19.454Z,75.10
2019-05-11T05:47:48.846Z,73.92
2019-05-11T05:50:18.319Z,73.82
2019-05-11T05:52:47.767Z,73.33
2019-05-11T05:55:17.134Z,73.28
2019-05-11T05:57:46.567Z,72.31
2019-05-11T06:00:16.465Z,72.53
2019-05-11T06:02:45.925Z,71.71
2019-05-11T06:05:15.341Z,71.98
2019-05-11T06:07:44.863Z,71.01
2019-05-11T06:10:14.461Z,71.32
2019-05-11T06:12:43.973Z,71.36
2019-05-11T06:15:14.168Z,71.42
2019-05-11T06:17:43.680Z,70.98
2019-05-11T06:20:13.655Z,70.64
2019-05-11T06:22:43.103Z,70.26
2019-05-11T06:25:12.804Z,70.17
2019-05-11T06:27:42.253Z,70.06
2019-05-11T06:30:12.100Z,69.92
2019-05-11T06:32:41.942Z,69.50
2019-05-11T06:35:11.496Z,69.86
2019-05-11T06:37:40.954Z,68.64
2019-05-11T06:40:10.685Z,69.38
2019-05-11T06:42:40.094Z,69.38
2019-05-11T06:45:09.837Z,67.67
2019-05-11T06:47:39.216Z,68.77
2019-05-11T06:50:08.693Z,68.77
2019-05-11T06:52:38.321Z,69.13
2019-05-11T06:55:08.011Z,67.69
2019-05-11T06:57:37.423Z,67.69
2019-05-11T07:00:07.285Z,68.18
2019-05-11T07:02:36.721Z,67.70
2019-05-11T07:05:06.768Z,67.08
2019-05-11T07:07:47.235Z,66.15
2019-05-11T07:10:07.732Z,66.15
2019-05-11T07:12:37.184Z,65.63
2019-05-11T07:15:08.484Z,64.72
2019-05-11T07:17:37.895Z,65.07
2019-05-11T07:20:07.697Z,64.29
2019-05-11T07:22:37.070Z,64.90
2019-05-11T07:25:06.495Z,64.90
2019-05-11T07:27:35.937Z,65.56
2019-05-11T07:30:06.265Z,62.12
2019-05-11T07:32:37.886Z,61.55
2019-05-11T07:35:08.476Z,62.81
2019-05-11T07:37:38.742Z,62.20
2019-05-11T07:40:09.044Z,62.86
2019-05-11T07:42:38.467Z,62.86
2019-05-11T07:45:09.015Z,62.97
2019-05-11T07:47:38.588Z,61.21
2019-05-11T07:50:09.343Z,62.25
2019-05-11T07:52:38.792Z,60.47
2019-05-11T07:55:08.850Z,60.12
2019-05-11T07:57:39.209Z,59.62
2019-05-11T08:00:09.533Z,57.98
2019-05-11T08:02:39.078Z,58.42
2019-05-11T08:05:08.928Z,57.40
2019-05-11T08:07:38.350Z,52.38
2019-05-11T08:10:08.885Z,53.74
2019-05-11T08:12:39.056Z,55.53
2019-05-11T08:15:13.418Z,56.72
2019-05-11T08:17:40.898Z,57.69
2019-05-11T08:20:11.184Z,55.77
2019-05-11T08:22:40.558Z,54.73
2019-05-11T08:25:09.938Z,54.47
2019-05-11T08:27:39.320Z,54.44
2019-05-11T08:30:10.130Z,54.75
2019-05-11T08:32:39.520Z,54.90
2019-05-11T08:35:09.670Z,50.90
2019-05-11T08:37:39.054Z,51.06
2019-05-11T08:40:09.200Z,52.99
2019-05-11T08:42:38.626Z,51.18
2019-05-11T08:45:18.925Z,52.37
2019-05-11T08:47:40.002Z,51.98
2019-05-11T08:50:09.539Z,49.32
2019-05-11T08:52:39.020Z,48.17
2019-05-11T08:55:08.732Z,48.85
2019-05-11T08:57:38.785Z,48.80
2019-05-11T09:00:09.791Z,48.94
2019-05-11T09:02:39.139Z,48.17
2019-05-11T09:05:08.657Z,47.75
2019-05-11T09:07:38.512Z,48.86
2019-05-11T09:10:08.337Z,47.07
2019-05-11T09:12:38.362Z,48.87
2019-05-11T09:15:08.884Z,46.82
2019-05-11T09:17:38.409Z,47.14
2019-05-11T09:20:09.046Z,45.37
2019-05-11T09:22:38.425Z,45.94
2019-05-11T09:25:08.795Z,46.16
2019-05-11T09:27:38.484Z,45.64
2019-05-11T09:30:08.788Z,44.74
2019-05-11T09:32:38.660Z,44.55
2019-05-11T09:35:08.874Z,45.11
2019-05-11T09:37:38.362Z,42.47
2019-05-11T09:40:08.124Z,44.16
2019-05-11T09:42:38.818Z,43.47
2019-05-11T09:45:08.659Z,43.66
2019-05-11T09:47:38.815Z,44.77
2019-05-11T09:50:08.833Z,44.57
2019-05-11T09:52:38.690Z,43.87
2019-05-11T09:55:09.071Z,44.40
2019-05-11T09:57:38.531Z,44.39
2019-05-11T10:00:08.816Z,42.30
2019-05-11T10:02:38.769Z,43.55
2019-05-11T10:05:08.590Z,43.12
2019-05-11T10:07:38.259Z,43.58
2019-05-11T10:10:09.223Z,43.88
2019-05-11T10:12:39.031Z,41.21
2019-05-11T10:15:09.023Z,42.54
2019-05-11T10:17:38.687Z,41.95
2019-05-11T10:20:09.402Z,42.53
2019-05-11T10:22:39.051Z,42.13
2019-05-11T10:25:09.220Z,40.87
2019-05-11T10:27:38.745Z,41.15
2019-05-11T10:30:08.933Z,41.09
2019-05-11T10:32:38.699Z,40.91
2019-05-11T10:35:08.493Z,41.53
2019-05-11T10:37:38.890Z,41.98
2019-05-11T10:40:09.907Z,41.20
2019-05-11T10:42:40.114Z,40.29
2019-05-11T10:45:09.936Z,40.80
2019-05-11T10:47:39.446Z,39.27
2019-05-11T10:50:09.165Z,39.91
2019-05-11T10:52:38.647Z,38.48
2019-05-11T10:55:08.861Z,39.18
2019-05-11T10:57:38.910Z,39.56
2019-05-11T11:00:09.266Z,39.40
2019-05-11T11:02:38.688Z,37.73
2019-05-11T11:05:08.475Z,35.91
2019-05-11T11:07:38.502Z,35.42
2019-05-11T11:10:09.022Z,35.29
2019-05-11T11:12:38.791Z,35.13
2019-05-11T11:15:08.758Z,36.59
2019-05-11T11:17:38.841Z,35.68
2019-05-11T11:20:08.886Z,35.92
2019-05-11T11:22:42.955Z,34.01
2019-05-11T11:25:09.998Z,33.89
2019-05-11T11:27:39.376Z,34.58
2019-05-11T11:30:09.424Z,33.66
2019-05-11T11:32:38.808Z,33.53
2019-05-11T11:35:08.731Z,33.27
2019-05-11T11:37:40.016Z,33.55
2019-05-11T11:40:09.693Z,33.93
2019-05-11T11:42:39.099Z,33.96
2019-05-11T11:45:10.619Z,33.95
2019-05-11T11:47:40.008Z,33.11
2019-05-11T11:50:09.931Z,31.46
2019-05-11T11:52:39.307Z,29.35
2019-05-11T11:55:08.888Z,30.61
2019-05-11T11:57:38.310Z,30.21
2019-05-11T12:00:09.226Z,30.25
2019-05-11T12:02:39.007Z,30.73
2019-05-11T12:05:08.892Z,31.12
2019-05-11T12:07:38.852Z,30.36
2019-05-11T12:10:08.987Z,30.54
2019-05-11T12:12:38.838Z,29.89
2019-05-11T12:15:09.087Z,31.20
2019-05-11T12:17:38.762Z,31.39
2019-05-11T12:20:09.099Z,30.85
2019-05-11T12:22:38.844Z,30.95
2019-05-11T12:25:08.389Z,29.22
2019-05-11T12:27:38.504Z,30.47
2019-05-11T12:30:09.220Z,31.08
2019-05-11T12:32:48.916Z,29.57
2019-05-11T12:35:18.785Z,29.70
2019-05-11T12:37:48.608Z,30.33
2019-05-11T12:40:18.355Z,30.50
2019-05-11T12:42:48.875Z,31.37
2019-05-11T12:45:18.538Z,31.00
2019-05-11T12:47:48.656Z,31.09
2019-05-11T12:50:18.870Z,31.64
2019-05-11T12:52:48.286Z,31.32
2019-05-11T12:55:18.153Z,30.86
2019-05-11T12:57:48.169Z,30.83
2019-05-11T13:00:18.230Z,30.75
2019-05-11T13:02:48.393Z,30.93
2019-05-11T13:05:18.572Z,30.87
2019-05-11T13:07:48.608Z,30.11
2019-05-11T13:10:18.784Z,30.12
2019-05-11T13:12:49.396Z,29.88
2019-05-11T13:15:20.430Z,30.30
2019-05-11T13:17:49.899Z,30.72
2019-05-11T13:20:19.293Z,29.61
2019-05-11T13:22:49.092Z,29.33
2019-05-11T13:25:18.547Z,29.18
2019-05-11T13:27:49.249Z,28.60
2019-05-11T13:30:19.188Z,28.77
2019-05-11T13:32:49.192Z,29.33
2019-05-11T13:35:18.957Z,28.66
2019-05-11T13:37:48.435Z,28.42
2019-05-11T13:40:18.586Z,28.02
2019-05-11T13:42:49.034Z,28.03
2019-05-11T13:45:18.851Z,28.19
2019-05-11T13:47:55.183Z,27.28
2019-05-11T13:50:19.928Z,27.68
2019-05-11T13:52:49.282Z,27.73
2019-05-11T13:55:18.701Z,26.69
2019-05-11T13:57:48.680Z,26.15
2019-05-11T14:00:18.382Z,26.29
2019-05-11T14:02:48.606Z,26.93
2019-05-11T14:05:18.321Z,26.68
2019-05-11T14:07:48.256Z,26.99
2019-05-11T14:10:18.365Z,27.06
2019-05-11T14:12:48.048Z,26.71
2019-05-11T14:15:18.768Z,28.42
2019-05-11T14:18:04.448Z,27.81
2019-05-11T14:20:21.245Z,28.87
2019-05-11T14:22:50.855Z,29.85
2019-05-11T14:25:20.269Z,30.86
2019-05-11T14:27:49.710Z,30.82
2019-05-11T14:30:20.096Z,29.79
2019-05-11T14:32:49.586Z,29.08
2019-05-11T14:35:19.156Z,28.73
2019-05-11T14:37:48.922Z,29.56
2019-05-11T14:40:18.673Z,29.70
2019-05-11T14:42:48.972Z,28.80
2019-05-11T14:45:19.004Z,27.92
2019-05-11T14:47:48.594Z,28.55
2019-05-11T14:50:18.874Z,28.25
2019-05-11T14:52:49.185Z,27.79
2019-05-11T14:55:18.809Z,27.53
2019-05-11T14:57:48.762Z,27.94
2019-05-11T15:00:18.819Z,28.19
2019-05-11T15:02:49.601Z,27.18
2019-05-11T15:05:20.317Z,27.08
2019-05-11T15:07:52.377Z,26.69
2019-05-11T15:10:22.267Z,26.69
2019-05-11T15:12:51.628Z,26.94
2019-05-11T15:15:21.018Z,27.74
2019-05-11T15:17:50.412Z,28.53
2019-05-11T15:20:20.193Z,27.12
2019-05-11T15:22:49.605Z,28.62
2019-05-11T15:25:19.942Z,29.16
2019-05-11T15:27:49.604Z,29.43
2019-05-11T15:30:19.417Z,29.35
2019-05-11T15:32:48.786Z,29.34
2019-05-11T15:35:19.052Z,29.55
2019-05-11T15:37:48.727Z,29.77
2019-05-11T15:40:20.506Z,29.82
2019-05-11T15:42:49.953Z,30.74
2019-05-11T15:45:20.152Z,30.77
2019-05-11T15:47:49.490Z,29.77
2019-05-11T15:50:19.616Z,29.53
2019-05-11T15:52:49.214Z,28.79
2019-05-11T15:55:20.346Z,28.00
2019-05-11T15:57:49.687Z,27.88
2019-05-11T16:00:19.798Z,28.49
2019-05-11T16:02:49.362Z,28.06
2019-05-11T16:05:19.079Z,28.43
2019-05-11T16:07:49.165Z,29.04
2019-05-11T16:10:19.254Z,29.95
2019-05-11T16:12:49.138Z,29.21
2019-05-11T16:15:19.615Z,29.10
2019-05-11T16:17:49.650Z,28.66
2019-05-11T16:20:19.607Z,29.47
2019-05-11T16:22:49.059Z,29.45
2019-05-11T16:25:19.861Z,29.95
2019-05-11T16:27:49.688Z,29.87
2019-05-11T16:30:21.584Z,30.36
2019-05-11T16:32:50.691Z,29.99
2019-05-11T16:35:20.765Z,29.92
2019-05-11T16:37:50.085Z,30.80
2019-05-11T16:40:20.965Z,31.21
2019-05-11T16:42:50.711Z,31.85
2019-05-11T16:45:23.607Z,33.44
2019-05-11T16:47:51.393Z,32.88
2019-05-11T16:50:20.957Z,33.04
2019-05-11T16:52:50.343Z,33.62
2019-05-11T16:55:19.722Z,35.05
2019-05-11T16:57:49.201Z,35.74
2019-05-11T17:00:18.770Z,36.06
2019-05-11T17:02:48.985Z,35.99
2019-05-11T17:05:26.446Z,35.98
2019-05-11T17:07:50.006Z,36.85
2019-05-11T17:10:19.922Z,36.61
2019-05-11T17:12:49.308Z,36.99
2019-05-11T17:15:19.403Z,36.72
2019-05-11T17:17:49.034Z,36.75
2019-05-11T17:20:19.470Z,36.68
2019-05-11T17:22:48.931Z,37.05
2019-05-11T17:25:19.094Z,37.29
2019-05-11T17:27:49.353Z,37.56
2019-05-11T17:30:19.858Z,38.50
2019-05-11T17:32:49.874Z,38.88
2019-05-11T17:35:24.333Z,40.43
2019-05-11T17:37:53.666Z,40.58
2019-05-11T17:40:23.701Z,43.02
2019-05-11T17:42:54.242Z,43.71
2019-05-11T17:45:24.049Z,44.18
2019-05-11T17:47:53.416Z,44.74
2019-05-11T17:50:22.839Z,45.14
2019-05-11T17:52:52.204Z,45.58
2019-05-11T17:55:21.697Z,46.01
2019-05-11T17:57:53.889Z,45.63
2019-05-11T18:00:23.026Z,45.95
2019-05-11T18:02:52.455Z,46.10
2019-05-11T18:05:21.861Z,45.93
2019-05-11T18:07:51.243Z,46.42
2019-05-11T18:10:20.627Z,46.45
2019-05-11T18:12:50.546Z,46.59
2019-05-11T18:15:20.457Z,46.35
2019-05-11T18:17:49.925Z,46.91
2019-05-11T18:20:21.744Z,46.87
2019-05-11T18:22:50.930Z,46.43
2019-05-11T18:25:20.568Z,46.26
2019-05-11T18:27:50.058Z,46.43
2019-05-11T18:30:19.699Z,45.87
2019-05-11T18:32:49.406Z,45.82
2019-05-11T18:35:19.624Z,46.56
2019-05-11T18:37:49.156Z,48.50
2019-05-11T18:40:19.933Z,49.38
2019-05-11T18:42:49.285Z,46.64
2019-05-11T18:45:19.320Z,48.51
2019-05-11T18:47:49.972Z,51.21
2019-05-11T18:50:30.652Z,52.99
2019-05-11T18:52:50.787Z,53.05
2019-05-11T18:55:20.154Z,53.24
2019-05-11T18:57:49.689Z,53.51
2019-05-11T19:00:19.306Z,53.58
2019-05-11T19:02:49.579Z,53.24
2019-05-11T19:05:19.444Z,54.25
2019-05-11T19:07:48.811Z,54.05
2019-05-11T19:10:18.250Z,53.98
2019-05-11T19:12:48.710Z,54.28
2019-05-11T19:15:19.130Z,54.80
2019-05-11T19:17:49.340Z,54.91
2019-05-11T19:20:19.152Z,55.23
2019-05-11T19:22:48.592Z,55.89
2019-05-11T19:25:18.420Z,56.00
2019-05-11T19:27:50.591Z,55.57
2019-05-11T19:30:19.161Z,55.45
2019-05-11T19:32:48.937Z,54.98
2019-05-11T19:35:21.214Z,55.29
2019-05-11T19:37:49.649Z,55.22
2019-05-11T19:40:19.009Z,55.42
2019-05-11T19:42:55.080Z,55.49
2019-05-11T19:45:24.445Z,55.26
2019-05-11T19:47:53.840Z,55.07
2019-05-11T19:50:23.237Z,55.35
2019-05-11T19:52:52.624Z,55.51
2019-05-11T19:55:22.004Z,55.39
2019-05-11T19:57:51.452Z,55.70
2019-05-11T20:00:21.214Z,55.70
2019-05-11T20:02:50.601Z,55.86
2019-05-11T20:05:20.043Z,55.93
2019-05-11T20:07:49.417Z,55.75
2019-05-11T20:10:19.248Z,55.81
2019-05-11T20:12:48.907Z,55.94
2019-05-11T20:15:19.054Z,56.13
2019-05-11T20:17:49.144Z,55.75
2019-05-11T20:20:19.029Z,55.83
2019-05-11T20:22:48.805Z,56.07
2019-05-11T20:25:19.298Z,55.61
2019-05-11T20:27:49.192Z,56.47
2019-05-11T20:30:19.314Z,56.19
2019-05-11T20:32:49.375Z,56.19
2019-05-11T20:35:21.221Z,55.72
2019-05-11T20:37:50.613Z,55.94
2019-05-11T20:40:20.308Z,57.47
2019-05-11T20:42:49.687Z,57.64
2019-05-11T20:45:19.167Z,58.87
2019-05-11T20:47:49.116Z,58.87
2019-05-11T20:50:18.788Z,59.40
2019-05-11T20:52:48.733Z,59.85
2019-05-11T20:55:18.607Z,60.51
2019-05-11T20:57:48.731Z,60.99
2019-05-11T21:00:18.959Z,60.26
2019-05-11T21:02:48.949Z,60.26
2019-05-11T21:05:18.690Z,60.11
2019-05-11T21:07:48.147Z,60.95
2019-05-11T21:10:17.629Z,61.20
2019-05-11T21:12:47.004Z,61.29
2019-05-11T21:15:16.918Z,62.63
2019-05-11T21:17:50.255Z,62.63
2019-05-11T21:20:18.143Z,62.91
2019-05-11T21:22:48.686Z,63.19
2019-05-11T21:25:18.474Z,63.57
2019-05-11T21:27:48.726Z,63.78
2019-05-11T21:30:18.885Z,62.89
2019-05-11T21:32:48.275Z,63.44
2019-05-11T21:35:19.216Z,63.14
2019-05-11T21:37:48.963Z,62.62
2019-05-11T21:40:18.296Z,62.70
2019-05-11T21:42:47.808Z,63.40
2019-05-11T21:45:18.251Z,63.10
2019-05-11T21:47:49.003Z,63.38
2019-05-11T21:50:19.263Z,63.50
2019-05-11T21:52:48.893Z,64.00
2019-05-11T21:55:18.311Z,64.71
2019-05-11T21:57:49.807Z,64.68
2019-05-11T22:00:19.700Z,64.87
2019-05-11T22:02:49.062Z,64.91
2019-05-11T22:05:20.851Z,65.01
2019-05-11T22:07:49.646Z,65.77
2019-05-11T22:10:19.240Z,66.25
2019-05-11T22:12:49.150Z,66.37
2019-05-11T22:15:18.597Z,66.38
2019-05-11T22:17:48.213Z,65.64
2019-05-11T22:20:18.403Z,65.83
2019-05-11T22:22:47.980Z,66.54
2019-05-11T22:25:18.263Z,65.67
2019-05-11T22:27:48.777Z,65.97
2019-05-11T22:30:18.778Z,66.76
2019-05-11T22:32:48.308Z,66.43
2019-05-11T22:35:18.360Z,66.92
2019-05-11T22:37:48.992Z,66.55
2019-05-11T22:40:18.708Z,66.34
2019-05-11T22:42:48.106Z,65.88
2019-05-11T22:45:18.729Z,66.21
2019-05-11T22:47:48.326Z,66.01
2019-05-11T22:50:18.574Z,66.03
2019-05-11T22:52:48.691Z,66.39
2019-05-11T22:55:19.017Z,67.12
2019-05-11T22:57:48.709Z,66.83
2019-05-11T23:00:22.270Z,66.43
2019-05-11T23:02:51.654Z,66.86
2019-05-11T23:05:21.076Z,67.45
2019-05-11T23:07:50.474Z,67.04
2019-05-11T23:10:19.839Z,67.00
2019-05-11T23:12:49.177Z,68.25
2019-05-11T23:15:19.383Z,67.97
2019-05-11T23:17:48.837Z,68.04
2019-05-11T23:20:18.599Z,68.11
2019-05-11T23:22:56.813Z,68.62
2019-05-11T23:25:19.387Z,69.08
2019-05-11T23:27:49.017Z,69.42
2019-05-11T23:30:19.948Z,69.62
2019-05-11T23:32:49.753Z,70.31
2019-05-11T23:35:19.350Z,70.26
2019-05-11T23:37:49.903Z,70.45
2019-05-11T23:40:20.274Z,70.94
2019-05-11T23:42:49.713Z,70.42
2019-05-11T23:45:19.596Z,71.14
2019-05-11T23:47:49.307Z,71.79
2019-05-11T23:50:19.358Z,72.50
2019-05-11T23:53:05.071Z,72.36
2019-05-11T23:55:20.375Z,71.68
2019-05-11T23:57:49.945Z,71.93
